Portada
METAR-TAF:

METAR-TAF

Aeroports :

Ghriss, Algèria

latitud: 35-12N, longitud: 000-08E, altitud: 514 m

Observació

L'informe es va fer fa 52 minuts, a les 21:00 UTC
Vent 8 kt del Sud-Est
Temperatura 22°C
Humitat 38%
Pressió 1014 hPa
Visibilitat 10 km o més
sense núvols per sota de 1500 mi sense presència de cumulonimbus.

METAR: DAOV 222100Z 13008KT CAVOK 22/07 Q1014

Hora: 22:52 (21:52 UTC)

Pronòstic

L'informe es va fer fa 4 hores i 52 minuts, a les 17:00 UTC
Pronòstic vàlid del 22 a les 18 UTC al 23 a les 03 UTC
Vent 2 kt amb direcció variable
Visibilitat: 9000 m
Evolucionant progressivament
l' 22 a les 19 UTC al 22 a les 22 UTC
Vent 8 kt del Sud-Est

TAF: DAOV 221700Z 2218/2303 VRB02KT 9000 NSC BECMG 2219/2222 14008KT

Observacions i pronòstics meteorològics de més de 4000 aeroports (METAR i TAF).

Les estacions disponibles són els punts grocs i vermells al mapa.

Posi el ratolí al punt desitjat per veure el nom de l'estació.

Feu clic per veure les observacions i els pronòstics meteorològics.

Per canviar el mapa: feu clic els botons verds amb una creu de color negre per apropar; al botó verd amb un guió per allunyar la imatge; o en les fletxes verdes per a mapes adjacents.


METAR-TAF: